Time;durP1;ratioP1;P1;durP2;ratioP2;P2;SDS_P1;SDS_P2;PMS_P1;PMS_P2;Temp;Humidity;BMP_temperature;BMP_pressure;BME280_temperature;BME280_humidity;BME280_pressure;Samples;Min_cycle;Max_cycle;Signal;HPM_P1;HPM_P2
2022/12/17 13:06:11;;;;;;;41.70;22.58;;;2.00;99.90;;;;;;5054538;28;20339;-79
2022/12/17 13:08:38;;;;;;;46.88;25.85;;;2.00;99.90;;;;;;5053628;28;20220;-79
2022/12/17 13:11:27;;;;;;;42.30;22.80;;;1.90;99.90;;;;;;5053127;28;20587;-80
2022/12/17 13:14:00;;;;;;;53.20;23.50;;;1.90;99.90;;;;;;5053442;28;20307;-80
2022/12/17 13:16:42;;;;;;;47.85;23.48;;;1.90;99.90;;;;;;5053450;28;20289;-80
2022/12/17 13:19:20;;;;;;;42.75;23.00;;;1.90;99.90;;;;;;5053123;28;20545;-80
2022/12/17 13:21:48;;;;;;;41.30;25.20;;;2.00;99.90;;;;;;5053339;28;20289;-80
2022/12/17 13:24:27;;;;;;;47.80;27.10;;;1.90;99.90;;;;;;5043949;28;20229;-79
2022/12/17 13:26:54;;;;;;;43.13;27.08;;;2.00;99.90;;;;;;5066427;28;20273;-78
2022/12/17 13:29:28;;;;;;;43.83;24.23;;;2.00;99.90;;;;;;5053967;28;20251;-77
2022/12/17 13:32:08;;;;;;;49.70;24.27;;;2.00;99.90;;;;;;5054259;28;20227;-77
2022/12/17 13:34:51;;;;;;;48.03;25.48;;;2.00;99.90;;;;;;5054359;28;20286;-80
2022/12/17 13:37:28;;;;;;;44.28;23.25;;;2.00;99.90;;;;;;5053661;28;20235;-80
2022/12/17 13:40:02;;;;;;;39.53;24.20;;;2.00;99.90;;;;;;5053313;28;20307;-77
2022/12/17 13:42:33;;;;;;;48.90;24.70;;;2.00;99.90;;;;;;5053182;28;20219;-77
2022/12/17 13:45:01;;;;;;;49.53;23.60;;;1.90;99.90;;;;;;5053411;28;20220;-77
2022/12/17 13:47:32;;;;;;;52.88;26.17;;;1.90;99.90;;;;;;5052432;28;20311;-77
2022/12/17 13:50:01;;;;;;;44.45;24.20;;;1.90;99.90;;;;;;5052888;28;20322;-77
2022/12/17 13:52:31;;;;;;;42.63;24.33;;;1.90;99.90;;;;;;5052606;28;20248;-77
2022/12/17 13:55:08;;;;;;;46.90;25.17;;;1.90;99.90;;;;;;5053567;28;20573;-77
2022/12/17 13:57:37;;;;;;;48.63;26.00;;;1.80;99.90;;;;;;5052378;28;20228;-77
2022/12/17 14:00:05;;;;;;;41.33;23.08;;;1.80;99.90;;;;;;5052711;28;20695;-77
2022/12/17 14:02:37;;;;;;;52.75;26.45;;;1.80;99.90;;;;;;5052313;28;20331;-77
2022/12/17 14:05:07;;;;;;;42.10;24.33;;;1.80;99.90;;;;;;5052724;28;20236;-77
2022/12/17 14:07:38;;;;;;;43.90;23.27;;;1.80;99.90;;;;;;5052116;28;20299;-77
2022/12/17 14:10:14;;;;;;;41.38;23.00;;;1.80;99.90;;;;;;5052561;28;20232;-77
2022/12/17 14:12:43;;;;;;;45.88;24.42;;;1.80;99.90;;;;;;5052037;28;20569;-77
2022/12/17 14:15:25;;;;;;;46.50;24.02;;;1.70;99.90;;;;;;5052939;28;20396;-77
2022/12/17 14:17:55;;;;;;;42.30;24.70;;;1.80;99.90;;;;;;5052504;28;20340;-76
2022/12/17 14:20:24;;;;;;;50.95;26.77;;;1.80;99.90;;;;;;5052511;28;20680;-77
2022/12/17 14:22:52;;;;;;;49.60;23.50;;;1.80;99.90;;;;;;5052247;28;20303;-77
2022/12/17 14:25:22;;;;;;;54.83;25.70;;;1.80;99.90;;;;;;5052604;28;20315;-77
2022/12/17 14:27:54;;;;;;;57.35;28.25;;;1.80;99.90;;;;;;5052058;28;20290;-78
2022/12/17 14:30:24;;;;;;;51.05;27.27;;;1.70;99.90;;;;;;5053073;28;20293;-80
2022/12/17 14:32:53;;;;;;;45.55;25.67;;;1.70;99.90;;;;;;5051383;28;20252;-80
2022/12/17 14:35:24;;;;;;;46.58;24.98;;;1.80;99.90;;;;;;5052835;28;20294;-80
2022/12/17 14:37:51;;;;;;;47.25;25.15;;;1.80;99.90;;;;;;5044854;28;20229;-80
2022/12/17 14:40:18;;;;;;;48.00;26.52;;;1.80;99.90;;;;;;5065500;28;20737;-80
2022/12/17 14:42:45;;;;;;;44.35;25.67;;;1.70;99.90;;;;;;5053650;28;20282;-80
2022/12/17 14:45:24;;;;;;;46.35;25.70;;;1.70;99.90;;;;;;5056537;28;20255;-80
2022/12/17 14:47:57;;;;;;;50.10;26.58;;;1.80;99.90;;;;;;5056020;28;20251;-80
2022/12/17 14:50:28;;;;;;;53.15;27.05;;;1.80;99.90;;;;;;5056530;28;20573;-80
2022/12/17 14:52:57;;;;;;;46.47;24.80;;;1.80;99.90;;;;;;5056206;28;20244;-80
2022/12/17 14:55:29;;;;;;;49.05;27.00;;;1.80;99.90;;;;;;5056689;28;20307;-77
2022/12/17 14:58:18;;;;;;;45.97;25.52;;;1.80;99.90;;;;;;5055486;28;20236;-77
2022/12/17 15:00:46;;;;;;;52.47;25.75;;;1.80;99.90;;;;;;5055457;28;20239;-77
2022/12/17 15:03:20;;;;;;;45.78;24.70;;;1.80;99.90;;;;;;5055748;28;20632;-77
2022/12/17 15:05:51;;;;;;;47.50;24.20;;;1.80;99.90;;;;;;5054387;28;20311;-77
2022/12/17 15:08:19;;;;;;;45.47;23.80;;;1.80;99.90;;;;;;5056905;28;20282;-77
2022/12/17 15:10:46;;;;;;;48.20;25.75;;;1.70;99.90;;;;;;5055198;28;20229;-77
2022/12/17 15:13:13;;;;;;;43.17;22.83;;;1.70;99.90;;;;;;5056054;28;20275;-76
2022/12/17 15:15:40;;;;;;;41.22;23.27;;;1.80;99.90;;;;;;5056393;28;20667;-76
2022/12/17 15:18:07;;;;;;;51.83;25.40;;;1.70;99.90;;;;;;5056175;28;20228;-78
2022/12/17 15:20:36;;;;;;;48.08;22.92;;;1.70;99.90;;;;;;5055920;28;20252;-78
2022/12/17 15:23:02;;;;;;;42.17;23.00;;;1.60;99.90;;;;;;5056585;28;20224;-77
2022/12/17 15:25:31;;;;;;;38.05;23.05;;;1.60;99.90;;;;;;5054621;28;20216;-77
2022/12/17 15:27:59;;;;;;;42.58;23.55;;;1.60;99.90;;;;;;5055631;28;20228;-77
2022/12/17 15:33:47;;;;;;;44.22;22.70;;;1.60;99.90;;;;;;5055387;28;20620;-78
2022/12/17 15:36:18;;;;;;;48.03;22.63;;;1.60;99.90;;;;;;5058253;28;20225;-76
2022/12/17 15:38:46;;;;;;;45.95;25.08;;;1.60;99.90;;;;;;5059966;28;20297;-78
2022/12/17 15:43:57;;;;;;;44.03;24.00;;;1.50;99.90;;;;;;5057738;28;20585;-76
2022/12/17 15:46:25;;;;;;;46.40;25.30;;;1.50;99.90;;;;;;5062601;28;20711;-76
2022/12/17 15:48:51;;;;;;;48.38;25.08;;;1.50;99.90;;;;;;5066710;28;20236;-76
2022/12/17 15:51:24;;;;;;;50.85;23.00;;;1.50;99.90;;;;;;5064242;28;20220;-78
2022/12/17 15:53:54;;;;;;;48.58;25.10;;;1.50;99.90;;;;;;5056044;28;20286;-77
2022/12/17 15:56:24;;;;;;;40.55;23.35;;;1.50;99.90;;;;;;5055703;28;20224;-78
2022/12/17 15:58:51;;;;;;;59.60;24.85;;;1.50;99.90;;;;;;5054987;28;20633;-81
2022/12/17 16:01:19;;;;;;;47.70;24.40;;;1.60;99.90;;;;;;5054941;28;20240;-80
2022/12/17 16:03:46;;;;;;;48.17;23.00;;;1.60;99.90;;;;;;5055007;28;20760;-81
2022/12/17 16:06:13;;;;;;;48.17;23.98;;;1.50;99.90;;;;;;5055106;28;20259;-80
2022/12/17 16:08:41;;;;;;;44.55;22.60;;;1.60;99.90;;;;;;5055349;28;20220;-80
2022/12/17 16:11:09;;;;;;;42.40;23.17;;;1.60;99.90;;;;;;5053510;28;20315;-81
2022/12/17 16:13:36;;;;;;;49.67;25.27;;;1.60;99.90;;;;;;5071591;28;20220;-80
2022/12/17 16:16:03;;;;;;;46.70;22.00;;;1.50;99.90;;;;;;5069829;28;20224;-79
2022/12/17 16:18:30;;;;;;;47.47;24.00;;;1.60;99.90;;;;;;5070604;28;20220;-79
2022/12/17 16:21:03;;;;;;;47.63;24.17;;;1.60;99.90;;;;;;5068840;28;20216;-80
2022/12/17 16:23:30;;;;;;;39.25;21.85;;;1.60;99.90;;;;;;5069321;28;20282;-80
2022/12/17 16:26:01;;;;;;;49.58;25.15;;;1.60;99.90;;;;;;5068313;28;20220;-80
2022/12/17 16:28:35;;;;;;;38.90;21.02;;;1.60;99.90;;;;;;5069185;28;20311;-79
2022/12/17 16:31:04;;;;;;;38.70;21.73;;;1.60;99.90;;;;;;5059823;28;20241;-80
2022/12/17 16:33:33;;;;;;;38.10;19.90;;;1.60;99.90;;;;;;5055952;28;20296;-80
2022/12/17 16:36:00;;;;;;;36.15;20.38;;;1.50;99.90;;;;;;5057482;28;20244;-81
2022/12/17 16:38:27;;;;;;;36.67;20.98;;;1.50;99.90;;;;;;5060271;28;20695;-80
2022/12/17 16:41:00;;;;;;;37.50;21.48;;;1.50;99.90;;;;;;5057222;28;20258;-80
2022/12/17 16:43:32;;;;;;;37.20;19.77;;;1.50;99.90;;;;;;5055735;28;20243;-81
2022/12/17 16:45:59;;;;;;;38.17;20.42;;;1.40;99.90;;;;;;5055136;28;20255;-80
2022/12/17 16:48:26;;;;;;;49.45;22.30;;;1.40;99.90;;;;;;5055508;28;20495;-80
2022/12/17 16:50:53;;;;;;;33.58;21.27;;;1.40;99.90;;;;;;5054734;28;20236;-80
2022/12/17 16:53:20;;;;;;;55.65;26.15;;;1.40;99.90;;;;;;5055011;28;20232;-80
2022/12/17 16:55:49;;;;;;;50.05;26.17;;;1.40;99.90;;;;;;5056118;28;20248;-80
2022/12/17 16:58:18;;;;;;;42.33;21.75;;;1.40;99.90;;;;;;5053394;28;20272;-80
2022/12/17 17:00:45;;;;;;;40.20;23.95;;;1.50;99.90;;;;;;5054642;28;20279;-80
2022/12/17 17:03:20;;;;;;;44.55;24.65;;;1.40;99.90;;;;;;5054580;28;20220;-79
2022/12/17 17:05:47;;;;;;;38.35;23.90;;;1.40;99.90;;;;;;5055002;28;20220;-81
2022/12/17 17:08:14;;;;;;;42.67;20.58;;;1.30;99.90;;;;;;5054692;28;20672;-80
2022/12/17 17:10:41;;;;;;;35.33;19.92;;;1.20;99.90;;;;;;5055228;28;20696;-80
2022/12/17 17:13:15;;;;;;;40.03;23.27;;;1.10;99.90;;;;;;5060163;28;20238;-81
2022/12/17 17:15:43;;;;;;;36.65;20.67;;;1.20;99.90;;;;;;5054354;28;20282;-80
2022/12/17 17:18:10;;;;;;;36.10;22.33;;;1.20;99.90;;;;;;5054507;28;20259;-80
2022/12/17 17:20:39;;;;;;;35.67;21.73;;;1.20;99.90;;;;;;5055272;28;20307;-80
2022/12/17 17:23:06;;;;;;;43.22;20.95;;;1.20;99.90;;;;;;5053472;28;20997;-80
2022/12/17 17:25:33;;;;;;;41.53;23.23;;;1.30;99.90;;;;;;5053882;28;20248;-79
2022/12/17 17:28:00;;;;;;;41.97;22.13;;;1.30;99.90;;;;;;5053694;28;20225;-80
2022/12/17 17:30:27;;;;;;;44.38;23.05;;;1.20;99.90;;;;;;5053750;28;20320;-80
2022/12/17 17:32:55;;;;;;;43.78;22.77;;;1.20;99.90;;;;;;5054205;28;20216;-80
2022/12/17 17:35:22;;;;;;;44.38;23.58;;;1.20;99.90;;;;;;5073123;28;20365;-81
2022/12/17 17:37:51;;;;;;;43.28;21.45;;;1.10;99.90;;;;;;5078884;28;20239;-80
2022/12/17 17:40:19;;;;;;;42.90;23.60;;;1.20;99.90;;;;;;5073924;28;20224;-80
2022/12/17 17:42:48;;;;;;;42.30;22.50;;;1.20;99.90;;;;;;5074443;28;20215;-80
2022/12/17 17:45:15;;;;;;;42.95;23.40;;;1.20;99.90;;;;;;5072578;28;20742;-79
2022/12/17 17:47:42;;;;;;;45.80;25.70;;;1.10;99.90;;;;;;5075818;28;20227;-79
2022/12/17 17:50:11;;;;;;;41.63;24.60;;;1.20;99.90;;;;;;5077114;28;20224;-81
2022/12/17 17:52:38;;;;;;;44.53;24.58;;;1.20;99.90;;;;;;5075889;28;20220;-80
2022/12/17 17:55:05;;;;;;;60.33;30.25;;;1.20;99.90;;;;;;5074565;28;20286;-80
2022/12/17 17:57:33;;;;;;;102.35;44.78;;;1.30;99.90;;;;;;5072439;28;20251;-77
2022/12/17 18:00:01;;;;;;;179.68;75.82;;;1.30;99.90;;;;;;5072188;28;20579;-77
2022/12/17 18:02:28;;;;;;;149.48;63.78;;;1.30;99.90;;;;;;5072508;28;20338;-77
2022/12/17 18:04:57;;;;;;;115.68;53.97;;;1.20;99.90;;;;;;5072780;28;20244;-77
2022/12/17 18:07:26;;;;;;;197.73;100.40;;;1.30;99.90;;;;;;5066886;28;20225;-77
2022/12/17 18:09:58;;;;;;;162.07;85.45;;;1.20;99.90;;;;;;5034199;28;20300;-81
2022/12/17 18:15:11;;;;;;;252.20;93.95;;;1.20;99.90;;;;;;5032648;28;20644;-80
2022/12/17 18:17:40;;;;;;;233.60;111.78;;;1.20;99.90;;;;;;5032084;28;20221;-80
2022/12/17 18:20:08;;;;;;;142.57;68.95;;;1.20;99.90;;;;;;5032080;28;20506;-77
2022/12/17 18:22:37;;;;;;;80.40;42.33;;;1.10;99.90;;;;;;5032323;28;20233;-76
2022/12/17 18:25:05;;;;;;;82.20;42.45;;;1.10;99.90;;;;;;5032670;28;20684;-78
2022/12/17 18:27:32;;;;;;;84.75;50.30;;;1.10;99.90;;;;;;5032433;28;20248;-77
2022/12/17 18:29:59;;;;;;;76.13;43.25;;;1.10;99.90;;;;;;5031926;28;20225;-77
2022/12/17 18:32:26;;;;;;;149.10;63.95;;;1.10;99.90;;;;;;5030743;28;20719;-80
2022/12/17 18:34:56;;;;;;;148.55;64.80;;;1.20;99.90;;;;;;5032553;28;20249;-80
2022/12/17 18:37:23;;;;;;;278.55;113.38;;;1.10;99.90;;;;;;5031286;28;20249;-77
2022/12/17 18:39:51;;;;;;;165.07;74.43;;;1.10;99.90;;;;;;5033209;28;20247;-80
2022/12/17 18:45:03;;;;;;;64.20;32.65;;;1.10;99.90;;;;;;5051856;28;20231;-77
2022/12/17 18:47:30;;;;;;;58.88;31.30;;;1.10;99.90;;;;;;5051767;28;20256;-77
2022/12/17 18:49:57;;;;;;;52.58;26.77;;;1.00;99.90;;;;;;5052987;28;20299;-78
2022/12/17 18:52:24;;;;;;;41.13;24.15;;;1.10;99.90;;;;;;5053039;28;20251;-80
2022/12/17 18:54:52;;;;;;;43.28;23.50;;;1.10;99.90;;;;;;5057468;28;20596;-77
2022/12/17 18:57:19;;;;;;;45.15;24.23;;;1.00;99.90;;;;;;5056019;28;20245;-78
2022/12/17 18:59:46;;;;;;;62.30;38.75;;;0.90;99.90;;;;;;5073217;28;20224;-81
2022/12/17 19:02:13;;;;;;;42.20;26.48;;;0.90;99.90;;;;;;5035719;28;20629;-81
2022/12/17 19:04:41;;;;;;;49.58;28.30;;;0.90;99.90;;;;;;5033389;28;20280;-81
2022/12/17 19:07:08;;;;;;;40.75;24.80;;;0.90;99.90;;;;;;5032302;28;20225;-81
2022/12/17 19:09:35;;;;;;;41.55;24.30;;;0.90;99.90;;;;;;5032193;28;20320;-78
2022/12/17 19:12:05;;;;;;;40.22;24.08;;;0.90;99.90;;;;;;5030182;28;20240;-78
2022/12/17 19:14:32;;;;;;;32.28;19.05;;;0.80;99.90;;;;;;5031487;28;20222;-78
2022/12/17 19:17:01;;;;;;;34.30;20.92;;;0.70;99.90;;;;;;5036092;28;20244;-78
2022/12/17 19:19:29;;;;;;;39.00;21.23;;;0.60;99.90;;;;;;5036510;28;20224;-79
2022/12/17 19:21:58;;;;;;;33.10;19.17;;;0.60;99.90;;;;;;5038791;28;20225;-80
2022/12/17 19:24:26;;;;;;;37.67;20.20;;;0.60;99.90;;;;;;5037310;28;20233;-79
2022/12/17 19:26:58;;;;;;;36.95;21.38;;;0.70;99.90;;;;;;5052765;28;20285;-78
2022/12/17 19:29:26;;;;;;;34.30;18.58;;;0.70;99.90;;;;;;5048711;28;20237;-80
2022/12/17 19:31:54;;;;;;;40.53;23.10;;;0.70;99.90;;;;;;5063368;28;20244;-80
2022/12/17 19:34:21;;;;;;;36.70;20.33;;;0.70;99.90;;;;;;5056137;28;20233;-80
2022/12/17 19:36:49;;;;;;;36.13;21.30;;;0.70;99.90;;;;;;5050494;28;20251;-80
2022/12/17 19:39:34;;;;;;;34.28;21.40;;;0.60;99.90;;;;;;5055236;28;20240;-81
2022/12/17 19:42:01;;;;;;;36.22;19.25;;;0.50;99.90;;;;;;5042826;28;20248;-80
2022/12/17 19:44:30;;;;;;;43.30;23.80;;;0.50;99.90;;;;;;5070835;28;20284;-81
2022/12/17 19:46:57;;;;;;;51.35;27.50;;;0.50;99.90;;;;;;5064839;28;20227;-80
2022/12/17 19:49:24;;;;;;;38.75;20.67;;;0.40;99.90;;;;;;5063998;28;20233;-80
2022/12/17 19:51:51;;;;;;;38.45;19.98;;;0.40;99.90;;;;;;5075035;28;20244;-81
2022/12/17 19:54:18;;;;;;;33.67;24.30;;;0.40;99.90;;;;;;5060956;28;20224;-81
2022/12/17 19:56:45;;;;;;;31.70;20.25;;;0.30;99.90;;;;;;5070930;28;20230;-77
2022/12/17 19:59:13;;;;;;;35.95;18.27;;;0.30;99.90;;;;;;5072113;28;20297;-80
2022/12/17 20:01:43;;;;;;;40.13;20.10;;;0.30;99.90;;;;;;5065710;28;20224;-80
2022/12/17 20:04:12;;;;;;;35.72;19.95;;;0.30;99.90;;;;;;5073191;28;20244;-78
2022/12/17 20:06:39;;;;;;;33.33;18.95;;;0.30;99.90;;;;;;5064928;28;20237;-78
2022/12/17 20:09:07;;;;;;;35.17;18.98;;;0.20;99.90;;;;;;5070277;28;20236;-77
2022/12/17 20:11:34;;;;;;;44.92;21.27;;;0.30;99.90;;;;;;5073473;28;20311;-78
2022/12/17 20:14:03;;;;;;;36.38;20.20;;;0.20;99.90;;;;;;5061345;28;20270;-77
2022/12/17 20:16:33;;;;;;;29.73;18.80;;;0.20;99.90;;;;;;5071919;28;20244;-80
2022/12/17 20:19:03;;;;;;;33.00;18.45;;;0.20;99.90;;;;;;5070970;28;20672;-79
2022/12/17 20:21:30;;;;;;;31.80;19.10;;;0.20;99.90;;;;;;5064045;28;20216;-79
2022/12/17 20:23:57;;;;;;;40.95;22.65;;;0.20;99.90;;;;;;5073031;28;20687;-79
2022/12/17 20:26:25;;;;;;;39.08;19.38;;;0.20;99.90;;;;;;5067851;28;20225;-79
2022/12/17 20:28:52;;;;;;;37.47;21.08;;;0.20;99.90;;;;;;5066052;28;20251;-77
2022/12/17 20:31:19;;;;;;;33.65;19.52;;;0.20;99.90;;;;;;5062864;28;20725;-80
2022/12/17 20:33:46;;;;;;;39.08;20.77;;;0.20;99.90;;;;;;5071500;28;20323;-76
2022/12/17 20:36:16;;;;;;;35.13;22.27;;;0.10;99.90;;;;;;5070664;28;20220;-76
2022/12/17 20:38:44;;;;;;;40.78;23.30;;;0.10;99.90;;;;;;5062933;28;20224;-79
2022/12/17 20:41:13;;;;;;;40.50;25.65;;;0.20;99.90;;;;;;5072250;28;20323;-79
2022/12/17 20:43:41;;;;;;;37.80;22.27;;;0.20;99.90;;;;;;5063074;28;20500;-79
2022/12/17 20:46:09;;;;;;;36.58;20.15;;;0.20;99.90;;;;;;5060988;28;20239;-77
2022/12/17 20:48:36;;;;;;;33.25;19.95;;;0.20;99.90;;;;;;5073241;28;20238;-76
2022/12/17 20:51:05;;;;;;;41.40;20.15;;;0.20;99.90;;;;;;5059886;28;20276;-79
2022/12/17 20:53:36;;;;;;;36.42;20.85;;;0.10;99.90;;;;;;5074496;28;20220;-79
2022/12/17 20:56:08;;;;;;;35.42;20.10;;;0.20;99.90;;;;;;5058254;28;20370;-79
2022/12/17 20:58:35;;;;;;;42.63;20.95;;;0.10;99.90;;;;;;5063839;28;20221;-79
2022/12/17 21:01:05;;;;;;;40.58;21.60;;;0.10;99.90;;;;;;5074347;28;20675;-79
2022/12/17 21:03:35;;;;;;;34.00;19.75;;;0.10;99.90;;;;;;5063903;28;20229;-79
2022/12/17 21:06:09;;;;;;;37.17;21.42;;;0.10;99.90;;;;;;5067109;28;20228;-76
2022/12/17 21:08:39;;;;;;;31.83;18.15;;;0.10;99.90;;;;;;5069852;28;20307;-77
2022/12/17 21:11:09;;;;;;;28.55;18.48;;;0.10;99.90;;;;;;5066540;28;20611;-76
2022/12/17 21:13:37;;;;;;;34.53;18.92;;;0.10;99.90;;;;;;5065417;28;20286;-76
2022/12/17 21:16:08;;;;;;;35.30;20.13;;;0.10;99.90;;;;;;5074577;28;20224;-76
2022/12/17 21:18:36;;;;;;;36.55;19.67;;;0.10;99.90;;;;;;5059117;28;20733;-77
2022/12/17 21:21:05;;;;;;;34.10;20.15;;;0.00;99.90;;;;;;5074941;28;20586;-79
2022/12/17 21:23:34;;;;;;;39.38;19.10;;;0.00;99.90;;;;;;5061042;28;20244;-77
2022/12/17 21:26:05;;;;;;;33.75;17.92;;;0.00;99.90;;;;;;5063301;28;20248;-79
2022/12/17 21:28:37;;;;;;;34.80;18.30;;;0.00;99.90;;;;;;5068342;28;20227;-79
2022/12/17 21:31:05;;;;;;;35.83;19.08;;;0.00;99.90;;;;;;5066067;28;20240;-77
2022/12/17 21:33:32;;;;;;;31.08;18.95;;;0.00;99.90;;;;;;5063692;28;20240;-77
2022/12/17 21:36:00;;;;;;;40.80;20.95;;;0.00;99.90;;;;;;5067985;28;20683;-78
2022/12/17 21:38:27;;;;;;;25.35;16.33;;;0.00;99.90;;;;;;5059468;28;20229;-76
2022/12/17 21:40:56;;;;;;;32.97;18.05;;;-0.10;99.90;;;;;;5059624;28;20270;-79
2022/12/17 21:43:24;;;;;;;35.08;18.90;;;-0.10;99.90;;;;;;5052416;28;20542;-80
2022/12/17 21:45:59;;;;;;;39.50;20.30;;;-0.10;99.90;;;;;;5039671;28;20538;-77
2022/12/17 21:48:27;;;;;;;32.55;18.10;;;-0.10;99.90;;;;;;5050199;28;20224;-80
2022/12/17 21:50:54;;;;;;;28.65;17.08;;;-0.20;99.90;;;;;;5049009;28;20225;-77
2022/12/17 21:53:22;;;;;;;36.22;20.42;;;-0.20;99.90;;;;;;5045788;28;20225;-77
2022/12/17 21:55:52;;;;;;;37.85;16.55;;;-0.30;99.90;;;;;;5051667;28;20312;-80
2022/12/17 21:58:20;;;;;;;31.58;16.00;;;-0.40;99.90;;;;;;5039018;28;20231;-76
2022/12/17 22:00:49;;;;;;;35.03;17.48;;;-0.40;99.90;;;;;;5049898;28;20228;-76
2022/12/17 22:03:16;;;;;;;27.05;17.48;;;-0.40;99.90;;;;;;5047798;28;20235;-79
2022/12/17 22:05:44;;;;;;;32.95;16.42;;;-0.50;99.90;;;;;;5042450;28;20235;-79
2022/12/17 22:08:12;;;;;;;32.25;18.92;;;-0.50;99.90;;;;;;5049746;28;20696;-79
2022/12/17 22:10:40;;;;;;;32.47;17.80;;;-0.50;99.90;;;;;;5041736;28;20232;-77
2022/12/17 22:15:55;;;;;;;29.05;18.40;;;-0.60;99.90;;;;;;5035747;28;20235;-77
2022/12/17 22:18:22;;;;;;;30.20;15.15;;;-0.60;99.90;;;;;;5052153;28;20224;-77
2022/12/17 22:20:57;;;;;;;27.13;15.25;;;-0.60;99.90;;;;;;5050031;28;20229;-77
2022/12/17 22:23:24;;;;;;;27.10;16.45;;;-0.60;99.90;;;;;;5041129;28;20246;-77
2022/12/17 22:25:51;;;;;;;23.48;17.10;;;-0.60;99.90;;;;;;5051305;28;20217;-77
2022/12/17 22:28:23;;;;;;;35.17;21.67;;;-0.60;99.90;;;;;;5052074;28;20248;-77
2022/12/17 22:33:38;;;;;;;34.92;19.30;;;-0.70;99.90;;;;;;5044825;28;20328;-76
2022/12/17 22:36:06;;;;;;;40.80;21.15;;;-0.70;99.90;;;;;;5039999;28;20698;-77
2022/12/17 22:38:34;;;;;;;30.50;18.63;;;-0.70;99.90;;;;;;5038618;28;20213;-79
2022/12/17 22:41:05;;;;;;;35.90;19.30;;;-0.80;99.90;;;;;;5051477;28;20710;-78
2022/12/17 22:43:32;;;;;;;33.05;17.20;;;-0.80;99.90;;;;;;5049918;28;20303;-79
2022/12/17 22:46:00;;;;;;;25.27;16.52;;;-0.80;99.90;;;;;;5044071;28;20228;-79
2022/12/17 22:48:28;;;;;;;31.02;16.52;;;-0.80;99.90;;;;;;5051245;28;20229;-79
2022/12/17 22:50:59;;;;;;;31.33;16.05;;;-0.70;99.90;;;;;;5041387;28;20318;-80
2022/12/17 22:53:26;;;;;;;34.05;17.35;;;-0.70;99.90;;;;;;5047965;28;20688;-77
2022/12/17 22:55:53;;;;;;;26.70;15.43;;;-0.70;99.90;;;;;;5049285;28;20240;-77
2022/12/17 22:58:20;;;;;;;38.42;17.58;;;-0.70;99.90;;;;;;5037846;28;20224;-79
2022/12/17 23:00:53;;;;;;;32.13;16.13;;;-0.70;99.90;;;;;;5048712;28;20287;-76
2022/12/17 23:03:20;;;;;;;31.40;17.08;;;-0.70;99.90;;;;;;5047099;28;20235;-79
2022/12/17 23:05:47;;;;;;;33.55;16.65;;;-0.70;99.90;;;;;;5038906;28;20308;-76
2022/12/17 23:08:15;;;;;;;30.70;14.20;;;-0.70;99.90;;;;;;5052912;28;20221;-76
2022/12/17 23:10:42;;;;;;;30.10;17.75;;;-0.80;99.90;;;;;;5043347;28;20231;-79
2022/12/17 23:13:18;;;;;;;27.85;15.80;;;-0.70;99.90;;;;;;5048904;28;20221;-79
2022/12/17 23:15:46;;;;;;;28.85;17.20;;;-0.80;99.90;;;;;;5049338;28;20216;-79
2022/12/17 23:18:15;;;;;;;31.90;16.48;;;-0.80;99.90;;;;;;5041831;28;20220;-76
2022/12/17 23:20:43;;;;;;;30.80;16.50;;;-0.80;99.90;;;;;;5053760;28;20220;-78
2022/12/17 23:23:10;;;;;;;32.63;19.95;;;-0.80;99.90;;;;;;5046087;28;20247;-76
2022/12/17 23:25:38;;;;;;;31.40;16.40;;;-0.90;99.90;;;;;;5048464;28;20410;-76
2022/12/17 23:28:05;;;;;;;29.85;15.80;;;-0.90;99.90;;;;;;5044117;28;20224;-76
2022/12/17 23:30:32;;;;;;;27.27;17.25;;;-0.90;99.90;;;;;;5041938;28;20225;-78
2022/12/17 23:32:59;;;;;;;30.48;17.63;;;-0.90;99.90;;;;;;5052294;28;20286;-76
2022/12/17 23:35:26;;;;;;;30.95;17.25;;;-0.90;99.90;;;;;;5044546;28;20319;-78
2022/12/17 23:37:53;;;;;;;35.15;18.08;;;-0.90;99.90;;;;;;5046640;28;20283;-78
2022/12/17 23:40:21;;;;;;;35.60;17.27;;;-1.00;99.90;;;;;;5055044;28;20225;-77
2022/12/17 23:42:49;;;;;;;27.33;16.13;;;-1.00;99.90;;;;;;5041455;28;20283;-78
2022/12/17 23:45:20;;;;;;;39.28;18.92;;;-1.00;99.90;;;;;;5053101;28;20225;-79
2022/12/17 23:47:47;;;;;;;30.30;16.17;;;-1.00;99.90;;;;;;5053388;28;20220;-76
2022/12/17 23:50:14;;;;;;;32.78;16.42;;;-1.00;99.90;;;;;;5042142;28;20259;-76
2022/12/17 23:52:41;;;;;;;25.40;15.60;;;-1.00;99.90;;;;;;5053227;28;20548;-78
2022/12/17 23:55:10;;;;;;;32.58;16.02;;;-1.10;99.90;;;;;;5045026;28;20244;-77
2022/12/17 23:57:37;;;;;;;21.77;13.27;;;-1.10;99.90;;;;;;5048936;28;20217;-76
